KASH/ASH METAR and TAF weather

Enter ICAO airport designator
Station Type Date Time Source
KASH METAR 2019/02/23 22:56 UTC NOAA

KASH 232256Z 00000KT 10SM CLR M01/M05 A3034 RMK AO2 SLP284 T10061050 $


Station Type Date Time Source
KASH Decoded METAR 2019/02/23 22:56 UTC NOAA

Nashua, Boire Field Airport, NH, United States (KASH) 42-46-54N 071-30-53W
Feb 23, 2019 - 05:56 PM EST / 2019.02.23 2256 UTC
Wind: Calm:0
Visibility: 10 mile(s):0
Sky conditions: clear
Temperature: 30.9 F (-0.6 C)
Dew Point: 23.0 F (-5.0 C)
Relative Humidity: 72%
Pressure (altimeter): 30.34 in. Hg (1027 hPa)
ob: KASH 232256Z 00000KT 10SM CLR M01/M05 A3034 RMK AO2 SLP284 T10061050
cycle: 23

Station Type Date Time Source
KASH TAF UTC NOAA

Error!


Example: see airport list